createdAt,value
2022-09-02T00:02:23.423Z,95967.31
2022-09-02T00:07:25.587Z,95955.91
2022-09-02T00:12:27.913Z,95959.94
2022-09-02T00:17:30.292Z,95943.78
2022-09-02T00:22:32.651Z,95938.47
2022-09-02T00:27:34.801Z,95951.59
2022-09-02T00:32:37.223Z,95951.34
2022-09-02T00:37:39.489Z,95947.16
2022-09-02T00:42:41.916Z,95949.50
2022-09-02T00:47:50.563Z,95937.38
2022-09-02T00:53:05.232Z,95943.09
2022-09-02T00:58:17.121Z,95942.97
2022-09-02T01:03:22.367Z,95932.47
2022-09-02T01:08:27.768Z,95959.41
2022-09-02T01:13:35.528Z,95964.78
2022-09-02T01:18:39.214Z,95945.13
2022-09-02T01:23:41.458Z,95949.88
2022-09-02T01:28:45.150Z,95947.25
2022-09-02T01:33:47.928Z,95952.53
2022-09-02T01:38:50.036Z,95946.69
2022-09-02T01:43:52.351Z,95954.91
2022-09-02T01:48:55.801Z,95962.16
2022-09-02T01:53:58.150Z,95948.47
2022-09-02T01:59:02.405Z,95946.56
2022-09-02T02:04:11.396Z,95945.13
2022-09-02T02:09:19.106Z,95951.28
2022-09-02T02:14:22.010Z,95943.94
2022-09-02T02:19:25.943Z,95955.31
2022-09-02T02:24:28.497Z,95944.78
2022-09-02T02:29:30.920Z,95948.66
2022-09-02T02:34:35.540Z,95933.75
2022-09-02T02:39:42.963Z,95934.00
2022-09-02T02:44:46.201Z,95944.38
2022-09-02T02:49:48.782Z,95915.59
2022-09-02T02:54:52.057Z,95918.44
2022-09-02T02:59:55.225Z,95929.53
2022-09-02T03:04:57.497Z,95926.75
2022-09-02T03:09:59.786Z,95935.56
2022-09-02T03:15:03.236Z,95923.59
2022-09-02T03:20:07.243Z,95930.53
2022-09-02T03:25:15.180Z,95928.00
2022-09-02T03:30:27.298Z,95946.28
2022-09-02T03:35:32.400Z,95940.69
2022-09-02T03:40:35.197Z,95955.56
2022-09-02T03:45:40.672Z,95964.31
2022-09-02T03:50:47.585Z,95969.47
2022-09-02T03:55:55.311Z,95948.28
2022-09-02T04:01:01.316Z,95954.47
2022-09-02T04:06:03.850Z,95955.69
2022-09-02T04:11:09.235Z,95966.50
2022-09-02T04:16:18.197Z,95962.47
2022-09-02T04:21:21.982Z,95966.59
2022-09-02T04:26:24.402Z,95966.34
2022-09-02T04:31:31.684Z,95985.66
2022-09-02T04:36:35.065Z,95984.56
2022-09-02T04:41:42.759Z,95956.81
2022-09-02T04:46:48.695Z,95972.59
2022-09-02T04:51:55.366Z,95974.97
2022-09-02T04:56:59.368Z,95973.97
2022-09-02T05:02:04.837Z,95980.22
2022-09-02T05:07:07.648Z,95978.81
2022-09-02T05:12:16.998Z,95975.34
2022-09-02T05:17:25.294Z,95991.03
2022-09-02T05:22:29.868Z,95983.72
2022-09-02T05:27:35.561Z,95970.66
2022-09-02T05:32:38.236Z,95986.09
2022-09-02T05:37:41.846Z,95957.09
2022-09-02T05:42:45.202Z,95971.94
2022-09-02T05:47:51.473Z,95976.25
2022-09-02T05:52:53.948Z,95981.63
2022-09-02T05:57:58.176Z,95971.56
2022-09-02T06:03:00.410Z,95994.16
2022-09-02T06:08:08.252Z,95971.56
2022-09-02T06:13:11.871Z,95979.25
2022-09-02T06:18:14.433Z,95979.97
2022-09-02T06:23:21.130Z,95985.09
2022-09-02T06:28:24.233Z,95984.47
2022-09-02T06:33:27.937Z,95979.59
2022-09-02T06:38:30.517Z,95971.25
2022-09-02T06:43:39.963Z,95974.09
2022-09-02T06:48:58.319Z,95990.44
2022-09-02T06:54:11.047Z,96003.69
2022-09-02T06:59:19.404Z,96006.34
2022-09-02T07:04:43.482Z,95989.94
2022-09-02T07:09:50.370Z,95978.25
2022-09-02T07:14:54.676Z,95994.03
2022-09-02T07:20:07.039Z,95986.06
2022-09-02T07:25:18.416Z,95994.22
2022-09-02T07:30:21.804Z,95971.06
2022-09-02T07:35:30.027Z,95988.75
2022-09-02T07:40:33.172Z,95982.34
2022-09-02T07:45:36.296Z,96006.88
2022-09-02T07:50:39.336Z,96009.50
2022-09-02T07:55:46.289Z,96017.81
2022-09-02T08:00:50.656Z,96002.16
2022-09-02T08:05:53.816Z,96014.44
2022-09-02T08:10:56.207Z,96013.88
2022-09-02T08:15:58.685Z,95998.50
2022-09-02T08:21:00.935Z,96025.88
2022-09-02T08:26:04.206Z,96017.69
2022-09-02T08:31:07.750Z,95998.13
2022-09-02T08:36:12.101Z,96010.47
2022-09-02T08:41:25.301Z,95997.56
2022-09-02T08:46:31.778Z,95997.22
2022-09-02T08:51:51.514Z,95991.56
2022-09-02T08:56:56.944Z,95970.38
2022-09-02T09:02:16.758Z,95988.22
2022-09-02T09:13:01.955Z,95977.59
2022-09-02T09:18:09.670Z,95967.75
2022-09-02T09:23:34.806Z,95934.66
2022-09-02T09:28:48.631Z,95980.00
2022-09-02T09:34:04.125Z,95982.09
2022-09-02T09:39:35.921Z,95987.38
2022-09-02T09:44:49.412Z,95984.84
2022-09-02T09:50:16.327Z,95990.94
2022-09-02T09:55:24.983Z,95983.78
2022-09-02T10:00:34.597Z,95996.53
2022-09-02T10:05:40.757Z,96043.13
2022-09-02T10:11:06.729Z,96054.56
2022-09-02T10:16:11.959Z,96033.25
2022-09-02T10:21:39.846Z,96018.19
2022-09-02T10:26:54.125Z,95998.69
2022-09-02T10:32:14.803Z,96002.25
2022-09-02T10:37:58.992Z,95986.84
2022-09-02T10:43:06.538Z,95963.94
2022-09-02T10:48:21.743Z,95975.31
2022-09-02T10:53:37.124Z,95968.47
2022-09-02T10:58:57.389Z,95972.94
2022-09-02T11:04:02.764Z,95968.63
2022-09-02T11:09:15.160Z,95955.09
2022-09-02T11:14:27.418Z,95956.94
2022-09-02T11:19:35.137Z,95960.84
2022-09-02T11:24:46.457Z,95953.47
2022-09-02T11:30:02.669Z,95962.16
2022-09-02T11:35:09.767Z,95932.31
2022-09-02T11:40:34.365Z,95928.81
2022-09-02T11:45:44.035Z,95973.91
2022-09-02T11:51:06.533Z,95985.66
2022-09-02T11:56:12.282Z,95995.72
2022-09-02T12:01:44.035Z,95984.53
2022-09-02T12:07:09.657Z,95959.16
2022-09-02T12:12:37.616Z,95974.91
2022-09-02T12:17:45.793Z,95991.25
2022-09-02T12:22:48.130Z,95973.88
2022-09-02T12:27:50.578Z,95984.75
2022-09-02T12:32:52.705Z,95990.31
2022-09-02T12:37:57.463Z,95965.94
2022-09-02T12:43:03.813Z,95958.47
2022-09-02T12:48:17.654Z,95946.97
2022-09-02T12:53:32.836Z,95970.66
2022-09-02T12:58:43.166Z,95926.88
2022-09-02T13:04:06.220Z,95910.06
2022-09-02T13:09:26.783Z,95947.25
2022-09-02T13:14:31.828Z,95950.41
2022-09-02T13:20:23.553Z,95952.16
2022-09-02T13:25:51.251Z,95964.94
2022-09-02T13:31:22.436Z,95967.94
2022-09-02T13:36:36.226Z,95953.34
2022-09-02T13:41:38.826Z,95968.44
2022-09-02T13:46:50.482Z,95967.31
2022-09-02T13:51:55.503Z,95953.00
2022-09-02T13:57:00.518Z,95943.91
2022-09-02T14:02:31.902Z,95963.97
2022-09-02T14:07:41.379Z,95969.63
2022-09-02T14:12:45.010Z,95935.56
2022-09-02T14:18:10.002Z,95951.50
2022-09-02T14:23:17.423Z,95962.63
2022-09-02T14:28:23.049Z,95993.69
2022-09-02T14:33:39.651Z,95990.31
2022-09-02T14:38:47.915Z,95985.16
2022-09-02T14:44:12.064Z,95952.03
2022-09-02T14:49:28.004Z,95961.72
2022-09-02T14:54:51.422Z,95964.06
2022-09-02T14:59:53.909Z,95982.91
2022-09-02T15:04:59.432Z,95986.72
2022-09-02T15:10:02.259Z,95970.59
2022-09-02T15:15:04.953Z,95944.06
2022-09-02T15:20:11.130Z,95947.09
2022-09-02T15:25:13.611Z,95953.56
2022-09-02T15:30:17.827Z,95920.72
2022-09-02T15:35:20.189Z,95942.28
2022-09-02T15:40:22.478Z,95940.81
2022-09-02T15:45:25.067Z,95926.25
2022-09-02T15:50:31.588Z,95930.72
2022-09-02T15:55:34.670Z,95904.94
2022-09-02T16:00:39.722Z,95945.69
2022-09-02T16:05:43.442Z,95921.06
2022-09-02T16:10:45.567Z,95927.44
2022-09-02T16:15:48.446Z,95930.25
2022-09-02T16:20:53.608Z,95929.28
2022-09-02T16:26:16.843Z,95966.25
2022-09-02T16:31:21.522Z,95953.75
2022-09-02T16:36:25.124Z,95957.91
2022-09-02T16:41:37.050Z,95952.72
2022-09-02T16:46:43.041Z,95978.84
2022-09-02T16:51:58.135Z,95973.38
2022-09-02T16:57:01.502Z,95991.34
2022-09-02T17:02:03.959Z,96011.81
2022-09-02T17:07:06.316Z,96009.88
2022-09-02T17:12:08.538Z,96012.63
2022-09-02T17:17:15.156Z,96027.44
2022-09-02T17:22:17.537Z,96010.41
2022-09-02T17:27:19.899Z,96039.53
2022-09-02T17:32:22.318Z,96057.91
2022-09-02T17:37:26.854Z,96064.13
2022-09-02T17:42:29.165Z,96069.56
2022-09-02T17:47:31.971Z,96067.56
2022-09-02T17:52:34.276Z,96048.81
2022-09-02T17:58:04.119Z,96062.38
2022-09-02T18:03:22.626Z,96054.56
2022-09-02T18:08:40.212Z,96053.75
2022-09-02T18:13:54.861Z,96045.34
2022-09-02T18:19:25.605Z,96052.69
2022-09-02T18:24:31.514Z,96056.38
2022-09-02T18:29:45.908Z,96058.97
2022-09-02T18:35:06.176Z,96049.94
2022-09-02T18:40:29.808Z,96053.38
2022-09-02T18:45:54.976Z,96025.63
2022-09-02T18:51:03.014Z,96041.78
2022-09-02T18:56:12.266Z,96025.44
2022-09-02T19:01:23.997Z,96026.84
2022-09-02T19:06:31.105Z,96015.28
2022-09-02T19:11:37.849Z,96012.22
2022-09-02T19:16:40.244Z,96008.31
2022-09-02T19:21:49.570Z,96014.88
2022-09-02T19:26:59.798Z,95994.06
2022-09-02T19:32:02.526Z,96013.81
2022-09-02T19:37:06.320Z,95999.31
2022-09-02T19:42:11.493Z,96027.56
2022-09-02T19:52:43.214Z,96006.13
2022-09-02T19:57:46.319Z,96020.47
2022-09-02T20:02:50.100Z,96016.75
2022-09-02T20:07:54.043Z,96019.78
2022-09-02T20:12:56.622Z,95995.16
2022-09-02T20:18:09.338Z,96044.41
2022-09-02T20:23:17.020Z,96019.44
2022-09-02T20:28:25.974Z,96023.66
2022-09-02T20:33:39.155Z,96037.00
2022-09-02T20:39:04.095Z,96024.31
2022-09-02T20:44:28.944Z,96074.16
2022-09-02T20:49:48.005Z,96067.41
2022-09-02T20:55:12.582Z,96047.34
2022-09-02T21:00:19.899Z,96047.00
2022-09-02T21:05:41.627Z,96049.94
2022-09-02T21:10:52.394Z,96050.94
2022-09-02T21:15:56.868Z,96076.25
2022-09-02T21:21:10.823Z,96058.34
2022-09-02T21:26:30.646Z,96060.72
2022-09-02T21:32:13.355Z,96065.59
2022-09-02T21:37:18.221Z,96052.03
2022-09-02T21:42:58.755Z,96055.06
2022-09-02T21:48:32.494Z,96067.81
2022-09-02T21:53:48.811Z,96068.28
2022-09-02T21:59:14.090Z,96067.00
2022-09-02T22:04:32.784Z,96039.25
2022-09-02T22:09:35.138Z,96042.50
2022-09-02T22:14:59.601Z,96044.91
2022-09-02T22:20:05.562Z,96040.03
2022-09-02T22:25:27.928Z,96055.53
2022-09-02T22:30:33.530Z,96022.56
2022-09-02T22:35:54.502Z,96048.63
2022-09-02T22:41:01.105Z,96045.56
2022-09-02T22:46:35.567Z,96012.63
2022-09-02T22:52:11.502Z,96038.22
2022-09-02T22:57:50.086Z,96047.50
2022-09-02T23:03:04.550Z,96050.69
2022-09-02T23:08:08.317Z,96070.19
2022-09-02T23:13:24.424Z,96058.50
2022-09-02T23:18:47.462Z,96071.47
2022-09-02T23:24:28.561Z,96073.84
2022-09-02T23:29:34.310Z,96081.53
2022-09-02T23:35:02.785Z,96080.84
2022-09-02T23:40:26.870Z,96086.88
2022-09-02T23:45:34.914Z,96071.47
2022-09-02T23:50:48.197Z,96080.47
2022-09-02T23:56:34.069Z,96083.25
